Terminal Aerodrome Forecast
Issued by NWS

Home | Current Version | Previous Version | Text Only | Print | Product List | Glossary On
Versions: 1 2 3 4 5 6 7 8 9 10 11 12
000
FTUS44 KTSA 210500
TAFFYV
TAF
KFYV 210520Z 2106/2206 18010KT P6SM SKC
     FM211500 19012G20KT P6SM SCT250
     FM220100 17007KT P6SM SCT250=

USA.gov is the U.S. government's official web portal to all federal, state and local government web resources and services.